sensor_id;sensor_type;location;lat;lon;timestamp;P1;durP1;ratioP1;P2;durP2;ratioP2
79616;SDS011;69097;52.132;5.422;2023-08-08T00:02:11;9.65;;;2.63;;
79616;SDS011;69097;52.132;5.422;2023-08-08T00:04:37;8.65;;;2.85;;
79616;SDS011;69097;52.132;5.422;2023-08-08T00:07:04;6.90;;;2.10;;
79616;SDS011;69097;52.132;5.422;2023-08-08T00:09:30;7.38;;;2.13;;
79616;SDS011;69097;52.132;5.422;2023-08-08T00:11:57;10.38;;;3.00;;
79616;SDS011;69097;52.132;5.422;2023-08-08T00:14:24;9.10;;;2.08;;
79616;SDS011;69097;52.132;5.422;2023-08-08T00:16:51;8.30;;;2.30;;
79616;SDS011;69097;52.132;5.422;2023-08-08T00:19:17;8.75;;;2.03;;
79616;SDS011;69097;52.132;5.422;2023-08-08T00:21:44;8.20;;;2.20;;
79616;SDS011;69097;52.132;5.422;2023-08-08T00:24:10;8.88;;;2.03;;
79616;SDS011;69097;52.132;5.422;2023-08-08T00:26:37;8.70;;;2.47;;
79616;SDS011;69097;52.132;5.422;2023-08-08T00:29:03;7.65;;;2.00;;
79616;SDS011;69097;52.132;5.422;2023-08-08T00:31:30;6.55;;;2.05;;
79616;SDS011;69097;52.132;5.422;2023-08-08T00:33:56;8.02;;;2.22;;
79616;SDS011;69097;52.132;5.422;2023-08-08T00:36:23;6.78;;;2.40;;
79616;SDS011;69097;52.132;5.422;2023-08-08T00:38:49;7.45;;;2.20;;
79616;SDS011;69097;52.132;5.422;2023-08-08T00:41:16;15.43;;;2.20;;
79616;SDS011;69097;52.132;5.422;2023-08-08T00:43:43;10.60;;;1.80;;
79616;SDS011;69097;52.132;5.422;2023-08-08T00:46:10;7.75;;;1.90;;
79616;SDS011;69097;52.132;5.422;2023-08-08T00:48:37;11.57;;;1.92;;
79616;SDS011;69097;52.132;5.422;2023-08-08T00:51:04;8.90;;;1.95;;
79616;SDS011;69097;52.132;5.422;2023-08-08T00:53:30;6.85;;;1.75;;
79616;SDS011;69097;52.132;5.422;2023-08-08T00:55:58;11.30;;;2.03;;
79616;SDS011;69097;52.132;5.422;2023-08-08T00:58:25;5.35;;;1.65;;
79616;SDS011;69097;52.132;5.422;2023-08-08T01:00:52;8.15;;;1.95;;
79616;SDS011;69097;52.132;5.422;2023-08-08T01:03:22;7.97;;;2.25;;
79616;SDS011;69097;52.132;5.422;2023-08-08T01:05:54;7.05;;;1.75;;
79616;SDS011;69097;52.132;5.422;2023-08-08T01:11:21;9.77;;;1.63;;
79616;SDS011;69097;52.132;5.422;2023-08-08T01:13:48;10.55;;;1.95;;
79616;SDS011;69097;52.132;5.422;2023-08-08T01:16:17;9.98;;;2.08;;
79616;SDS011;69097;52.132;5.422;2023-08-08T01:18:46;9.82;;;1.60;;
79616;SDS011;69097;52.132;5.422;2023-08-08T01:21:14;9.10;;;1.92;;
79616;SDS011;69097;52.132;5.422;2023-08-08T01:23:43;10.13;;;2.30;;
79616;SDS011;69097;52.132;5.422;2023-08-08T01:26:12;10.88;;;2.33;;
79616;SDS011;69097;52.132;5.422;2023-08-08T01:28:39;8.48;;;2.00;;
79616;SDS011;69097;52.132;5.422;2023-08-08T01:31:05;9.82;;;1.90;;
79616;SDS011;69097;52.132;5.422;2023-08-08T01:33:33;8.35;;;2.42;;
79616;SDS011;69097;52.132;5.422;2023-08-08T01:36:00;7.60;;;1.88;;
79616;SDS011;69097;52.132;5.422;2023-08-08T01:38:34;10.65;;;2.17;;
79616;SDS011;69097;52.132;5.422;2023-08-08T01:41:04;6.15;;;1.75;;
79616;SDS011;69097;52.132;5.422;2023-08-08T01:43:33;12.45;;;2.10;;
79616;SDS011;69097;52.132;5.422;2023-08-08T01:46:01;7.43;;;1.98;;
79616;SDS011;69097;52.132;5.422;2023-08-08T01:48:30;9.77;;;2.22;;
79616;SDS011;69097;52.132;5.422;2023-08-08T01:50:57;6.95;;;2.03;;
79616;SDS011;69097;52.132;5.422;2023-08-08T01:53:23;9.23;;;2.15;;
79616;SDS011;69097;52.132;5.422;2023-08-08T01:55:50;8.90;;;2.15;;
79616;SDS011;69097;52.132;5.422;2023-08-08T01:58:18;5.45;;;1.70;;
79616;SDS011;69097;52.132;5.422;2023-08-08T02:00:44;9.20;;;2.22;;
79616;SDS011;69097;52.132;5.422;2023-08-08T02:03:13;9.35;;;1.88;;
79616;SDS011;69097;52.132;5.422;2023-08-08T02:05:39;15.05;;;2.30;;
79616;SDS011;69097;52.132;5.422;2023-08-08T02:08:06;10.05;;;2.10;;
79616;SDS011;69097;52.132;5.422;2023-08-08T02:10:32;7.05;;;1.90;;
79616;SDS011;69097;52.132;5.422;2023-08-08T02:12:59;9.90;;;2.20;;
79616;SDS011;69097;52.132;5.422;2023-08-08T02:15:25;10.38;;;2.15;;
79616;SDS011;69097;52.132;5.422;2023-08-08T02:17:52;14.25;;;2.80;;
79616;SDS011;69097;52.132;5.422;2023-08-08T02:20:18;9.95;;;2.00;;
79616;SDS011;69097;52.132;5.422;2023-08-08T02:22:45;9.93;;;2.42;;
79616;SDS011;69097;52.132;5.422;2023-08-08T02:25:11;12.65;;;2.42;;
79616;SDS011;69097;52.132;5.422;2023-08-08T02:27:38;13.00;;;2.63;;
79616;SDS011;69097;52.132;5.422;2023-08-08T02:30:05;9.95;;;2.00;;
79616;SDS011;69097;52.132;5.422;2023-08-08T02:32:32;12.30;;;2.38;;
79616;SDS011;69097;52.132;5.422;2023-08-08T02:34:58;11.48;;;2.05;;
79616;SDS011;69097;52.132;5.422;2023-08-08T02:37:25;11.38;;;1.95;;
79616;SDS011;69097;52.132;5.422;2023-08-08T02:39:52;7.75;;;1.88;;
79616;SDS011;69097;52.132;5.422;2023-08-08T02:42:18;11.93;;;2.50;;
79616;SDS011;69097;52.132;5.422;2023-08-08T02:44:45;9.35;;;2.22;;
79616;SDS011;69097;52.132;5.422;2023-08-08T02:47:11;8.57;;;2.42;;
79616;SDS011;69097;52.132;5.422;2023-08-08T02:49:38;11.95;;;2.42;;
79616;SDS011;69097;52.132;5.422;2023-08-08T02:52:04;7.50;;;1.98;;
79616;SDS011;69097;52.132;5.422;2023-08-08T02:54:31;9.40;;;2.38;;
79616;SDS011;69097;52.132;5.422;2023-08-08T02:56:57;6.93;;;1.92;;
79616;SDS011;69097;52.132;5.422;2023-08-08T02:59:24;9.40;;;2.10;;
79616;SDS011;69097;52.132;5.422;2023-08-08T03:01:50;7.45;;;2.15;;
79616;SDS011;69097;52.132;5.422;2023-08-08T03:04:16;11.07;;;2.22;;
79616;SDS011;69097;52.132;5.422;2023-08-08T03:06:43;12.55;;;2.22;;
79616;SDS011;69097;52.132;5.422;2023-08-08T03:09:09;10.02;;;2.13;;
79616;SDS011;69097;52.132;5.422;2023-08-08T03:11:36;8.88;;;2.20;;
79616;SDS011;69097;52.132;5.422;2023-08-08T03:14:03;8.05;;;2.33;;
79616;SDS011;69097;52.132;5.422;2023-08-08T03:16:30;8.80;;;2.08;;
79616;SDS011;69097;52.132;5.422;2023-08-08T03:18:56;11.27;;;2.42;;
79616;SDS011;69097;52.132;5.422;2023-08-08T03:21:23;10.88;;;2.05;;
79616;SDS011;69097;52.132;5.422;2023-08-08T03:23:49;10.18;;;2.30;;
79616;SDS011;69097;52.132;5.422;2023-08-08T03:26:16;9.55;;;2.20;;
79616;SDS011;69097;52.132;5.422;2023-08-08T03:28:42;10.50;;;2.72;;
79616;SDS011;69097;52.132;5.422;2023-08-08T03:31:09;11.35;;;2.28;;
79616;SDS011;69097;52.132;5.422;2023-08-08T03:33:35;13.10;;;2.40;;
79616;SDS011;69097;52.132;5.422;2023-08-08T03:36:02;15.00;;;2.60;;
79616;SDS011;69097;52.132;5.422;2023-08-08T03:38:28;11.40;;;2.60;;
79616;SDS011;69097;52.132;5.422;2023-08-08T03:40:55;7.35;;;2.45;;
79616;SDS011;69097;52.132;5.422;2023-08-08T03:43:21;8.77;;;2.40;;
79616;SDS011;69097;52.132;5.422;2023-08-08T03:45:48;11.07;;;2.45;;
79616;SDS011;69097;52.132;5.422;2023-08-08T03:48:15;8.88;;;2.28;;
79616;SDS011;69097;52.132;5.422;2023-08-08T03:50:41;7.43;;;2.33;;
79616;SDS011;69097;52.132;5.422;2023-08-08T03:53:08;10.77;;;2.97;;
79616;SDS011;69097;52.132;5.422;2023-08-08T03:55:34;7.28;;;2.50;;
79616;SDS011;69097;52.132;5.422;2023-08-08T03:58:01;10.05;;;2.75;;
79616;SDS011;69097;52.132;5.422;2023-08-08T04:00:28;10.93;;;2.55;;
79616;SDS011;69097;52.132;5.422;2023-08-08T04:02:54;9.75;;;2.63;;
79616;SDS011;69097;52.132;5.422;2023-08-08T04:05:21;13.63;;;3.75;;
79616;SDS011;69097;52.132;5.422;2023-08-08T04:07:47;9.75;;;2.90;;
79616;SDS011;69097;52.132;5.422;2023-08-08T04:10:14;10.15;;;2.70;;
79616;SDS011;69097;52.132;5.422;2023-08-08T04:12:40;10.02;;;2.47;;
79616;SDS011;69097;52.132;5.422;2023-08-08T04:15:07;14.23;;;2.70;;
79616;SDS011;69097;52.132;5.422;2023-08-08T04:17:34;8.25;;;2.92;;
79616;SDS011;69097;52.132;5.422;2023-08-08T04:20:02;9.20;;;2.72;;
79616;SDS011;69097;52.132;5.422;2023-08-08T04:22:29;7.22;;;2.47;;
79616;SDS011;69097;52.132;5.422;2023-08-08T04:24:56;11.73;;;2.60;;
79616;SDS011;69097;52.132;5.422;2023-08-08T04:27:22;8.60;;;2.25;;
79616;SDS011;69097;52.132;5.422;2023-08-08T04:29:49;9.80;;;2.47;;
79616;SDS011;69097;52.132;5.422;2023-08-08T04:32:15;9.20;;;2.35;;
79616;SDS011;69097;52.132;5.422;2023-08-08T04:34:42;9.15;;;2.13;;
79616;SDS011;69097;52.132;5.422;2023-08-08T04:37:08;7.60;;;2.28;;
79616;SDS011;69097;52.132;5.422;2023-08-08T04:39:35;11.50;;;2.55;;
79616;SDS011;69097;52.132;5.422;2023-08-08T04:42:01;7.88;;;2.38;;
79616;SDS011;69097;52.132;5.422;2023-08-08T04:44:28;10.07;;;2.58;;
79616;SDS011;69097;52.132;5.422;2023-08-08T04:46:55;9.32;;;2.15;;
79616;SDS011;69097;52.132;5.422;2023-08-08T04:49:22;8.57;;;2.22;;
79616;SDS011;69097;52.132;5.422;2023-08-08T04:51:48;10.23;;;2.55;;
79616;SDS011;69097;52.132;5.422;2023-08-08T04:54:15;8.80;;;2.67;;
79616;SDS011;69097;52.132;5.422;2023-08-08T04:56:41;10.68;;;2.17;;
79616;SDS011;69097;52.132;5.422;2023-08-08T04:59:08;9.70;;;2.60;;
79616;SDS011;69097;52.132;5.422;2023-08-08T05:01:34;10.00;;;2.28;;
79616;SDS011;69097;52.132;5.422;2023-08-08T05:04:01;7.30;;;2.42;;
79616;SDS011;69097;52.132;5.422;2023-08-08T05:06:28;11.32;;;2.40;;
79616;SDS011;69097;52.132;5.422;2023-08-08T05:08:55;6.95;;;2.08;;
79616;SDS011;69097;52.132;5.422;2023-08-08T05:11:23;10.70;;;2.63;;
79616;SDS011;69097;52.132;5.422;2023-08-08T05:13:49;7.68;;;2.42;;
79616;SDS011;69097;52.132;5.422;2023-08-08T05:16:16;7.10;;;2.58;;
79616;SDS011;69097;52.132;5.422;2023-08-08T05:18:42;10.23;;;2.47;;
79616;SDS011;69097;52.132;5.422;2023-08-08T05:21:11;7.72;;;2.33;;
79616;SDS011;69097;52.132;5.422;2023-08-08T05:23:37;6.03;;;2.17;;
79616;SDS011;69097;52.132;5.422;2023-08-08T05:26:04;7.75;;;1.85;;
79616;SDS011;69097;52.132;5.422;2023-08-08T05:28:30;9.52;;;2.40;;
79616;SDS011;69097;52.132;5.422;2023-08-08T05:30:57;10.63;;;2.38;;
79616;SDS011;69097;52.132;5.422;2023-08-08T05:33:25;6.70;;;1.92;;
79616;SDS011;69097;52.132;5.422;2023-08-08T05:35:51;8.38;;;2.38;;
79616;SDS011;69097;52.132;5.422;2023-08-08T05:38:18;8.68;;;2.05;;
79616;SDS011;69097;52.132;5.422;2023-08-08T05:40:44;12.63;;;2.30;;
79616;SDS011;69097;52.132;5.422;2023-08-08T05:43:11;9.27;;;2.53;;
79616;SDS011;69097;52.132;5.422;2023-08-08T05:45:43;11.50;;;2.45;;
79616;SDS011;69097;52.132;5.422;2023-08-08T05:50:39;7.82;;;1.88;;
79616;SDS011;69097;52.132;5.422;2023-08-08T05:53:06;7.65;;;2.13;;
79616;SDS011;69097;52.132;5.422;2023-08-08T05:55:33;7.65;;;1.90;;
79616;SDS011;69097;52.132;5.422;2023-08-08T05:57:59;7.38;;;2.05;;
79616;SDS011;69097;52.132;5.422;2023-08-08T06:00:26;9.32;;;1.70;;
79616;SDS011;69097;52.132;5.422;2023-08-08T06:02:52;8.50;;;1.52;;
79616;SDS011;69097;52.132;5.422;2023-08-08T06:05:21;6.30;;;1.75;;
79616;SDS011;69097;52.132;5.422;2023-08-08T06:07:49;6.60;;;1.30;;
79616;SDS011;69097;52.132;5.422;2023-08-08T06:10:16;7.25;;;1.65;;
79616;SDS011;69097;52.132;5.422;2023-08-08T06:12:43;6.28;;;1.40;;
79616;SDS011;69097;52.132;5.422;2023-08-08T06:15:09;6.55;;;1.27;;
79616;SDS011;69097;52.132;5.422;2023-08-08T06:17:36;6.05;;;1.92;;
79616;SDS011;69097;52.132;5.422;2023-08-08T06:20:03;4.18;;;1.02;;
79616;SDS011;69097;52.132;5.422;2023-08-08T06:22:30;4.88;;;1.30;;
79616;SDS011;69097;52.132;5.422;2023-08-08T06:24:57;5.95;;;1.15;;
79616;SDS011;69097;52.132;5.422;2023-08-08T06:27:23;5.88;;;1.15;;
79616;SDS011;69097;52.132;5.422;2023-08-08T06:29:50;6.40;;;1.25;;
79616;SDS011;69097;52.132;5.422;2023-08-08T06:32:17;5.85;;;1.10;;
79616;SDS011;69097;52.132;5.422;2023-08-08T06:34:43;7.53;;;0.80;;
79616;SDS011;69097;52.132;5.422;2023-08-08T06:37:10;7.40;;;0.98;;
79616;SDS011;69097;52.132;5.422;2023-08-08T06:39:37;5.85;;;1.13;;
79616;SDS011;69097;52.132;5.422;2023-08-08T06:42:04;4.63;;;0.95;;
79616;SDS011;69097;52.132;5.422;2023-08-08T06:44:40;6.78;;;1.05;;
79616;SDS011;69097;52.132;5.422;2023-08-08T06:47:08;5.32;;;1.15;;
79616;SDS011;69097;52.132;5.422;2023-08-08T06:49:34;6.28;;;1.13;;
79616;SDS011;69097;52.132;5.422;2023-08-08T06:52:01;6.43;;;1.02;;
79616;SDS011;69097;52.132;5.422;2023-08-08T06:54:27;4.63;;;1.17;;
79616;SDS011;69097;52.132;5.422;2023-08-08T06:56:56;3.42;;;0.73;;
79616;SDS011;69097;52.132;5.422;2023-08-08T06:59:26;5.90;;;1.13;;
79616;SDS011;69097;52.132;5.422;2023-08-08T07:01:52;3.15;;;0.57;;
79616;SDS011;69097;52.132;5.422;2023-08-08T07:04:19;3.45;;;0.77;;
79616;SDS011;69097;52.132;5.422;2023-08-08T07:06:46;3.45;;;1.02;;
79616;SDS011;69097;52.132;5.422;2023-08-08T07:09:13;9.52;;;1.40;;
79616;SDS011;69097;52.132;5.422;2023-08-08T07:11:40;5.97;;;1.02;;
79616;SDS011;69097;52.132;5.422;2023-08-08T07:14:07;4.35;;;0.82;;
79616;SDS011;69097;52.132;5.422;2023-08-08T07:16:33;4.13;;;0.70;;
79616;SDS011;69097;52.132;5.422;2023-08-08T07:19:00;5.10;;;0.75;;
79616;SDS011;69097;52.132;5.422;2023-08-08T07:21:26;4.60;;;0.40;;
79616;SDS011;69097;52.132;5.422;2023-08-08T07:23:53;6.07;;;1.02;;
79616;SDS011;69097;52.132;5.422;2023-08-08T07:26:20;7.85;;;0.73;;
79616;SDS011;69097;52.132;5.422;2023-08-08T07:28:48;5.38;;;0.70;;
79616;SDS011;69097;52.132;5.422;2023-08-08T07:31:15;6.03;;;0.52;;
79616;SDS011;69097;52.132;5.422;2023-08-08T07:33:41;4.43;;;0.75;;
79616;SDS011;69097;52.132;5.422;2023-08-08T07:36:08;4.75;;;0.60;;
79616;SDS011;69097;52.132;5.422;2023-08-08T07:38:34;5.25;;;1.05;;
79616;SDS011;69097;52.132;5.422;2023-08-08T07:41:01;4.05;;;0.68;;
79616;SDS011;69097;52.132;5.422;2023-08-08T07:43:27;5.40;;;0.98;;
79616;SDS011;69097;52.132;5.422;2023-08-08T07:45:54;3.75;;;0.95;;
79616;SDS011;69097;52.132;5.422;2023-08-08T07:48:20;3.05;;;0.60;;
79616;SDS011;69097;52.132;5.422;2023-08-08T07:50:47;3.45;;;0.73;;
79616;SDS011;69097;52.132;5.422;2023-08-08T07:53:13;2.65;;;0.40;;
79616;SDS011;69097;52.132;5.422;2023-08-08T07:55:40;3.47;;;0.45;;
79616;SDS011;69097;52.132;5.422;2023-08-08T07:58:06;5.35;;;0.60;;
79616;SDS011;69097;52.132;5.422;2023-08-08T08:00:33;3.70;;;0.63;;
79616;SDS011;69097;52.132;5.422;2023-08-08T08:02:59;3.10;;;0.57;;
79616;SDS011;69097;52.132;5.422;2023-08-08T08:05:26;4.10;;;0.50;;
79616;SDS011;69097;52.132;5.422;2023-08-08T08:07:53;4.75;;;1.27;;
79616;SDS011;69097;52.132;5.422;2023-08-08T08:10:19;3.42;;;0.47;;
79616;SDS011;69097;52.132;5.422;2023-08-08T08:12:46;4.32;;;0.70;;
79616;SDS011;69097;52.132;5.422;2023-08-08T08:15:12;2.83;;;0.63;;
79616;SDS011;69097;52.132;5.422;2023-08-08T08:17:39;3.13;;;0.75;;
79616;SDS011;69097;52.132;5.422;2023-08-08T08:20:06;2.28;;;0.73;;
79616;SDS011;69097;52.132;5.422;2023-08-08T08:22:37;4.28;;;0.63;;
79616;SDS011;69097;52.132;5.422;2023-08-08T08:25:04;1.42;;;0.55;;
79616;SDS011;69097;52.132;5.422;2023-08-08T08:27:33;2.08;;;0.32;;
79616;SDS011;69097;52.132;5.422;2023-08-08T08:30:00;3.85;;;0.50;;
79616;SDS011;69097;52.132;5.422;2023-08-08T08:32:26;3.80;;;0.68;;
79616;SDS011;69097;52.132;5.422;2023-08-08T08:34:53;3.63;;;0.45;;
79616;SDS011;69097;52.132;5.422;2023-08-08T08:37:19;6.18;;;0.75;;
79616;SDS011;69097;52.132;5.422;2023-08-08T08:39:46;2.25;;;0.32;;
79616;SDS011;69097;52.132;5.422;2023-08-08T08:42:12;3.80;;;0.63;;
79616;SDS011;69097;52.132;5.422;2023-08-08T08:44:42;2.90;;;0.52;;
79616;SDS011;69097;52.132;5.422;2023-08-08T08:49:38;2.65;;;0.82;;
79616;SDS011;69097;52.132;5.422;2023-08-08T08:52:08;3.72;;;0.52;;
79616;SDS011;69097;52.132;5.422;2023-08-08T08:54:34;3.58;;;0.73;;
79616;SDS011;69097;52.132;5.422;2023-08-08T08:57:01;2.17;;;0.40;;
79616;SDS011;69097;52.132;5.422;2023-08-08T08:59:28;4.88;;;0.60;;
79616;SDS011;69097;52.132;5.422;2023-08-08T09:01:55;3.53;;;0.32;;
79616;SDS011;69097;52.132;5.422;2023-08-08T09:04:23;5.35;;;0.70;;
79616;SDS011;69097;52.132;5.422;2023-08-08T09:09:17;2.40;;;0.43;;
79616;SDS011;69097;52.132;5.422;2023-08-08T09:11:48;3.00;;;0.40;;
79616;SDS011;69097;52.132;5.422;2023-08-08T09:14:24;3.97;;;0.43;;
79616;SDS011;69097;52.132;5.422;2023-08-08T09:16:52;1.70;;;0.43;;
79616;SDS011;69097;52.132;5.422;2023-08-08T09:19:20;3.22;;;0.70;;
79616;SDS011;69097;52.132;5.422;2023-08-08T09:21:47;1.98;;;0.35;;
79616;SDS011;69097;52.132;5.422;2023-08-08T09:24:14;3.00;;;0.47;;
79616;SDS011;69097;52.132;5.422;2023-08-08T09:26:41;2.47;;;0.63;;
79616;SDS011;69097;52.132;5.422;2023-08-08T09:29:09;4.07;;;0.82;;
79616;SDS011;69097;52.132;5.422;2023-08-08T09:31:41;4.90;;;0.70;;
79616;SDS011;69097;52.132;5.422;2023-08-08T09:36:34;4.40;;;0.88;;
79616;SDS011;69097;52.132;5.422;2023-08-08T09:39:01;4.00;;;0.40;;
79616;SDS011;69097;52.132;5.422;2023-08-08T09:41:28;3.38;;;0.85;;
79616;SDS011;69097;52.132;5.422;2023-08-08T09:43:54;3.75;;;0.73;;
79616;SDS011;69097;52.132;5.422;2023-08-08T09:46:21;2.70;;;0.40;;
79616;SDS011;69097;52.132;5.422;2023-08-08T09:48:49;3.05;;;0.43;;
79616;SDS011;69097;52.132;5.422;2023-08-08T09:51:16;3.30;;;0.52;;
79616;SDS011;69097;52.132;5.422;2023-08-08T09:56:13;1.92;;;0.35;;
79616;SDS011;69097;52.132;5.422;2023-08-08T09:58:41;3.60;;;0.80;;
79616;SDS011;69097;52.132;5.422;2023-08-08T10:01:09;4.25;;;0.60;;
79616;SDS011;69097;52.132;5.422;2023-08-08T10:03:39;4.07;;;0.80;;
79616;SDS011;69097;52.132;5.422;2023-08-08T10:06:09;4.03;;;0.98;;
79616;SDS011;69097;52.132;5.422;2023-08-08T10:08:36;4.40;;;0.45;;
79616;SDS011;69097;52.132;5.422;2023-08-08T10:13:31;5.47;;;0.70;;
79616;SDS011;69097;52.132;5.422;2023-08-08T10:15:58;2.20;;;0.70;;
79616;SDS011;69097;52.132;5.422;2023-08-08T10:18:31;3.10;;;0.43;;
79616;SDS011;69097;52.132;5.422;2023-08-08T10:20:57;4.03;;;0.57;;
79616;SDS011;69097;52.132;5.422;2023-08-08T10:23:24;1.98;;;0.32;;
79616;SDS011;69097;52.132;5.422;2023-08-08T10:25:51;4.43;;;0.80;;
79616;SDS011;69097;52.132;5.422;2023-08-08T10:28:21;3.53;;;0.75;;
79616;SDS011;69097;52.132;5.422;2023-08-08T10:33:24;4.47;;;0.52;;
79616;SDS011;69097;52.132;5.422;2023-08-08T10:36:02;2.65;;;0.45;;
79616;SDS011;69097;52.132;5.422;2023-08-08T10:41:11;3.28;;;0.52;;
79616;SDS011;69097;52.132;5.422;2023-08-08T10:43:46;7.95;;;0.43;;
79616;SDS011;69097;52.132;5.422;2023-08-08T10:46:23;2.22;;;0.47;;
79616;SDS011;69097;52.132;5.422;2023-08-08T10:48:56;3.08;;;0.50;;
79616;SDS011;69097;52.132;5.422;2023-08-08T10:51:33;2.67;;;0.52;;
79616;SDS011;69097;52.132;5.422;2023-08-08T10:54:04;4.20;;;0.82;;
79616;SDS011;69097;52.132;5.422;2023-08-08T10:56:38;4.13;;;0.75;;
79616;SDS011;69097;52.132;5.422;2023-08-08T10:59:14;2.03;;;0.50;;
79616;SDS011;69097;52.132;5.422;2023-08-08T11:01:52;2.42;;;0.55;;
79616;SDS011;69097;52.132;5.422;2023-08-08T11:04:19;2.80;;;0.65;;
79616;SDS011;69097;52.132;5.422;2023-08-08T11:09:20;2.97;;;0.60;;
79616;SDS011;69097;52.132;5.422;2023-08-08T11:11:46;3.25;;;0.70;;
79616;SDS011;69097;52.132;5.422;2023-08-08T11:14:14;2.70;;;0.50;;
79616;SDS011;69097;52.132;5.422;2023-08-08T11:16:42;2.20;;;0.73;;
79616;SDS011;69097;52.132;5.422;2023-08-08T11:19:10;2.22;;;0.52;;
79616;SDS011;69097;52.132;5.422;2023-08-08T11:21:44;3.97;;;0.57;;
79616;SDS011;69097;52.132;5.422;2023-08-08T11:24:12;4.60;;;0.60;;
79616;SDS011;69097;52.132;5.422;2023-08-08T11:26:40;3.83;;;0.85;;
79616;SDS011;69097;52.132;5.422;2023-08-08T11:29:07;4.40;;;0.68;;
79616;SDS011;69097;52.132;5.422;2023-08-08T11:31:35;4.60;;;0.57;;
79616;SDS011;69097;52.132;5.422;2023-08-08T11:34:02;4.22;;;0.70;;
79616;SDS011;69097;52.132;5.422;2023-08-08T11:36:31;4.30;;;1.00;;
79616;SDS011;69097;52.132;5.422;2023-08-08T11:39:02;3.65;;;0.52;;
79616;SDS011;69097;52.132;5.422;2023-08-08T11:41:35;2.53;;;0.50;;
79616;SDS011;69097;52.132;5.422;2023-08-08T11:44:05;2.70;;;0.52;;
79616;SDS011;69097;52.132;5.422;2023-08-08T11:46:35;2.45;;;0.47;;
79616;SDS011;69097;52.132;5.422;2023-08-08T11:49:08;2.47;;;0.63;;
79616;SDS011;69097;52.132;5.422;2023-08-08T11:51:35;6.68;;;0.75;;
79616;SDS011;69097;52.132;5.422;2023-08-08T11:54:02;2.30;;;0.40;;
79616;SDS011;69097;52.132;5.422;2023-08-08T11:56:33;2.55;;;0.45;;
79616;SDS011;69097;52.132;5.422;2023-08-08T11:59:00;4.93;;;0.65;;
79616;SDS011;69097;52.132;5.422;2023-08-08T12:01:27;3.08;;;0.47;;
79616;SDS011;69097;52.132;5.422;2023-08-08T12:03:56;3.92;;;0.50;;
79616;SDS011;69097;52.132;5.422;2023-08-08T12:06:27;3.35;;;0.60;;
79616;SDS011;69097;52.132;5.422;2023-08-08T12:08:55;3.65;;;0.43;;
79616;SDS011;69097;52.132;5.422;2023-08-08T12:13:51;3.30;;;1.10;;
79616;SDS011;69097;52.132;5.422;2023-08-08T12:16:27;3.33;;;0.47;;
79616;SDS011;69097;52.132;5.422;2023-08-08T12:18:55;2.28;;;0.52;;
79616;SDS011;69097;52.132;5.422;2023-08-08T12:21:22;4.53;;;0.93;;
79616;SDS011;69097;52.132;5.422;2023-08-08T12:23:49;2.53;;;0.40;;
79616;SDS011;69097;52.132;5.422;2023-08-08T12:26:15;3.17;;;0.73;;
79616;SDS011;69097;52.132;5.422;2023-08-08T12:28:41;5.38;;;0.80;;
79616;SDS011;69097;52.132;5.422;2023-08-08T12:31:08;2.17;;;0.60;;
79616;SDS011;69097;52.132;5.422;2023-08-08T12:33:35;3.13;;;0.70;;
79616;SDS011;69097;52.132;5.422;2023-08-08T12:36:01;4.05;;;0.52;;
79616;SDS011;69097;52.132;5.422;2023-08-08T12:38:28;2.22;;;0.50;;
79616;SDS011;69097;52.132;5.422;2023-08-08T12:40:54;4.03;;;0.52;;
79616;SDS011;69097;52.132;5.422;2023-08-08T12:43:21;5.00;;;0.57;;
79616;SDS011;69097;52.132;5.422;2023-08-08T12:45:47;3.22;;;0.63;;
79616;SDS011;69097;52.132;5.422;2023-08-08T12:48:14;2.42;;;0.60;;
79616;SDS011;69097;52.132;5.422;2023-08-08T12:50:40;2.85;;;0.55;;
79616;SDS011;69097;52.132;5.422;2023-08-08T12:53:07;2.85;;;0.73;;
79616;SDS011;69097;52.132;5.422;2023-08-08T12:55:34;5.93;;;0.80;;
79616;SDS011;69097;52.132;5.422;2023-08-08T13:00:28;3.75;;;0.63;;
79616;SDS011;69097;52.132;5.422;2023-08-08T13:02:54;3.90;;;0.43;;
79616;SDS011;69097;52.132;5.422;2023-08-08T13:05:21;4.07;;;0.80;;
79616;SDS011;69097;52.132;5.422;2023-08-08T13:07:47;3.60;;;0.50;;
79616;SDS011;69097;52.132;5.422;2023-08-08T13:10:14;2.83;;;0.45;;
79616;SDS011;69097;52.132;5.422;2023-08-08T13:12:41;4.53;;;0.47;;
79616;SDS011;69097;52.132;5.422;2023-08-08T13:15:07;5.10;;;1.00;;
79616;SDS011;69097;52.132;5.422;2023-08-08T13:17:35;4.20;;;0.75;;
79616;SDS011;69097;52.132;5.422;2023-08-08T13:22:29;3.90;;;0.63;;
79616;SDS011;69097;52.132;5.422;2023-08-08T13:24:55;2.80;;;0.60;;
79616;SDS011;69097;52.132;5.422;2023-08-08T13:27:22;4.35;;;0.90;;
79616;SDS011;69097;52.132;5.422;2023-08-08T13:29:48;3.30;;;0.68;;
79616;SDS011;69097;52.132;5.422;2023-08-08T13:32:15;4.00;;;0.80;;
79616;SDS011;69097;52.132;5.422;2023-08-08T13:34:41;7.25;;;0.82;;
79616;SDS011;69097;52.132;5.422;2023-08-08T13:37:08;3.08;;;0.60;;
79616;SDS011;69097;52.132;5.422;2023-08-08T13:39:34;5.85;;;0.82;;
79616;SDS011;69097;52.132;5.422;2023-08-08T13:42:01;3.78;;;0.73;;
79616;SDS011;69097;52.132;5.422;2023-08-08T13:46:54;3.70;;;0.70;;
79616;SDS011;69097;52.132;5.422;2023-08-08T13:49:21;3.85;;;0.63;;
79616;SDS011;69097;52.132;5.422;2023-08-08T13:51:52;2.47;;;0.65;;
79616;SDS011;69097;52.132;5.422;2023-08-08T13:54:19;4.10;;;0.63;;
79616;SDS011;69097;52.132;5.422;2023-08-08T13:56:46;3.35;;;0.77;;
79616;SDS011;69097;52.132;5.422;2023-08-08T13:59:13;4.70;;;0.63;;
79616;SDS011;69097;52.132;5.422;2023-08-08T14:01:40;3.20;;;0.55;;
79616;SDS011;69097;52.132;5.422;2023-08-08T14:04:06;2.55;;;0.55;;
79616;SDS011;69097;52.132;5.422;2023-08-08T14:06:33;5.38;;;0.60;;
79616;SDS011;69097;52.132;5.422;2023-08-08T14:09:00;5.38;;;1.00;;
79616;SDS011;69097;52.132;5.422;2023-08-08T14:11:26;4.25;;;0.68;;
79616;SDS011;69097;52.132;5.422;2023-08-08T14:13:53;3.85;;;0.85;;
79616;SDS011;69097;52.132;5.422;2023-08-08T14:16:19;4.03;;;0.63;;
79616;SDS011;69097;52.132;5.422;2023-08-08T14:18:46;4.18;;;0.75;;
79616;SDS011;69097;52.132;5.422;2023-08-08T14:21:12;5.00;;;0.68;;
79616;SDS011;69097;52.132;5.422;2023-08-08T14:23:39;4.47;;;0.60;;
79616;SDS011;69097;52.132;5.422;2023-08-08T14:26:05;4.57;;;0.63;;
79616;SDS011;69097;52.132;5.422;2023-08-08T14:28:32;4.78;;;0.65;;
79616;SDS011;69097;52.132;5.422;2023-08-08T14:30:58;4.97;;;0.55;;
79616;SDS011;69097;52.132;5.422;2023-08-08T14:33:25;3.58;;;0.63;;
79616;SDS011;69097;52.132;5.422;2023-08-08T14:35:51;4.55;;;0.70;;
79616;SDS011;69097;52.132;5.422;2023-08-08T14:38:18;4.43;;;1.52;;
79616;SDS011;69097;52.132;5.422;2023-08-08T14:40:44;3.17;;;0.82;;
79616;SDS011;69097;52.132;5.422;2023-08-08T14:43:11;3.50;;;0.63;;
79616;SDS011;69097;52.132;5.422;2023-08-08T14:45:39;3.40;;;0.52;;
79616;SDS011;69097;52.132;5.422;2023-08-08T14:48:05;5.07;;;0.63;;
79616;SDS011;69097;52.132;5.422;2023-08-08T14:50:33;5.70;;;1.73;;
79616;SDS011;69097;52.132;5.422;2023-08-08T14:52:59;2.92;;;0.65;;
79616;SDS011;69097;52.132;5.422;2023-08-08T14:55:26;3.08;;;0.82;;
79616;SDS011;69097;52.132;5.422;2023-08-08T14:57:52;3.20;;;0.63;;
79616;SDS011;69097;52.132;5.422;2023-08-08T15:00:19;3.25;;;0.60;;
79616;SDS011;69097;52.132;5.422;2023-08-08T15:02:46;3.40;;;0.68;;
79616;SDS011;69097;52.132;5.422;2023-08-08T15:05:12;4.45;;;0.65;;
79616;SDS011;69097;52.132;5.422;2023-08-08T15:07:39;4.00;;;0.70;;
79616;SDS011;69097;52.132;5.422;2023-08-08T15:10:05;4.32;;;1.02;;
79616;SDS011;69097;52.132;5.422;2023-08-08T15:12:32;5.03;;;0.70;;
79616;SDS011;69097;52.132;5.422;2023-08-08T15:14:59;3.45;;;0.70;;
79616;SDS011;69097;52.132;5.422;2023-08-08T15:17:25;4.38;;;0.75;;
79616;SDS011;69097;52.132;5.422;2023-08-08T15:19:53;3.45;;;0.60;;
79616;SDS011;69097;52.132;5.422;2023-08-08T15:22:19;4.00;;;1.00;;